createdAt,value
2023-02-21T00:31:38.580Z,97.04
2023-02-21T00:36:58.579Z,96.92
2023-02-21T00:42:18.626Z,96.47
2023-02-21T00:47:38.930Z,96.21
2023-02-21T00:52:59.028Z,96.03
2023-02-21T00:58:19.331Z,95.90
2023-02-21T01:03:39.357Z,95.95
2023-02-21T01:09:03.920Z,95.89
2023-02-21T01:14:28.206Z,96.04
2023-02-21T01:19:48.729Z,96.08
2023-02-21T01:25:08.923Z,96.26
2023-02-21T01:30:29.370Z,96.32
2023-02-21T01:35:49.687Z,96.38
2023-02-21T01:41:10.028Z,96.64
2023-02-21T01:46:32.795Z,96.53
2023-02-21T01:51:57.108Z,97.00
2023-02-21T01:57:19.588Z,96.83
2023-02-21T02:02:47.739Z,97.14
2023-02-21T02:08:08.194Z,97.18
2023-02-21T02:13:30.785Z,97.42
2023-02-21T02:18:59.596Z,97.60
2023-02-21T02:24:10.126Z,97.65
2023-02-21T02:29:32.445Z,97.81
2023-02-21T02:34:49.450Z,97.68
2023-02-21T02:40:03.803Z,97.99
2023-02-21T02:45:15.169Z,97.92
2023-02-21T02:50:17.313Z,97.81
2023-02-21T02:55:30.738Z,98.00
2023-02-21T03:00:36.723Z,98.11
2023-02-21T03:05:47.229Z,98.23
2023-02-21T03:11:01.746Z,98.52
2023-02-21T03:16:27.211Z,98.88
2023-02-21T03:21:35.274Z,98.94
2023-02-21T03:26:41.894Z,98.89
2023-02-21T03:32:15.993Z,99.10
2023-02-21T03:37:45.168Z,99.42
2023-02-21T03:42:47.685Z,99.45
2023-02-21T03:47:51.981Z,99.57
2023-02-21T03:52:54.256Z,99.87
2023-02-21T03:57:56.652Z,99.70
2023-02-21T04:02:59.769Z,99.88
2023-02-21T04:08:14.116Z,99.99
2023-02-21T04:13:15.974Z,100.00
2023-02-21T04:18:20.717Z,100.00
2023-02-21T04:23:24.107Z,100.00
2023-02-21T04:28:25.668Z,100.00
2023-02-21T04:33:27.364Z,100.00
2023-02-21T04:38:29.039Z,100.00
2023-02-21T04:43:31.139Z,100.00
2023-02-21T04:48:32.778Z,100.00
2023-02-21T04:53:34.318Z,100.00
2023-02-21T04:58:44.897Z,100.00
2023-02-21T05:03:48.089Z,100.00
2023-02-21T05:08:50.680Z,100.00
2023-02-21T05:13:52.377Z,100.00
2023-02-21T05:18:54.013Z,100.00
2023-02-21T05:23:55.833Z,100.00
2023-02-21T05:28:57.595Z,100.00
2023-02-21T05:33:59.298Z,100.00
2023-02-21T05:39:01.138Z,100.00
2023-02-21T05:44:03.418Z,100.00
2023-02-21T05:49:09.043Z,100.00
2023-02-21T05:54:16.659Z,100.00
2023-02-21T05:59:19.562Z,100.00
2023-02-21T06:04:21.112Z,100.00
2023-02-21T06:09:22.823Z,100.00
2023-02-21T06:14:26.822Z,100.00
2023-02-21T06:19:28.583Z,100.00
2023-02-21T06:24:30.179Z,100.00
2023-02-21T06:29:32.016Z,100.00
2023-02-21T06:34:34.010Z,100.00
2023-02-21T06:39:35.530Z,100.00
2023-02-21T06:44:37.071Z,99.72
2023-02-21T06:49:38.715Z,99.57
2023-02-21T06:54:40.381Z,99.45
2023-02-21T06:59:41.903Z,99.39
2023-02-21T07:04:43.593Z,99.33
2023-02-21T07:09:45.111Z,99.27
2023-02-21T07:14:46.774Z,99.15
2023-02-21T07:19:48.255Z,99.10
2023-02-21T07:24:49.730Z,99.24
2023-02-21T07:29:51.310Z,98.88
2023-02-21T07:34:53.067Z,98.93
2023-02-21T07:39:54.672Z,98.93
2023-02-21T07:44:57.209Z,98.32
2023-02-21T07:49:59.021Z,98.70
2023-02-21T07:55:00.636Z,98.66
2023-02-21T08:00:02.207Z,98.47
2023-02-21T08:05:15.629Z,98.46
2023-02-21T08:10:23.545Z,98.44
2023-02-21T08:15:25.180Z,98.41
2023-02-21T08:20:26.724Z,98.25
2023-02-21T08:25:28.339Z,98.25
2023-02-21T08:30:29.907Z,98.22
2023-02-21T08:35:31.551Z,98.01
2023-02-21T08:40:33.137Z,98.06
2023-02-21T08:45:34.918Z,97.84
2023-02-21T08:50:36.575Z,97.81
2023-02-21T08:55:38.122Z,97.89
2023-02-21T09:00:39.704Z,97.77
2023-02-21T09:05:41.245Z,97.91
2023-02-21T09:10:47.196Z,97.41
2023-02-21T09:15:49.003Z,97.77
2023-02-21T09:20:53.846Z,97.64
2023-02-21T09:25:55.498Z,97.58
2023-02-21T09:30:57.005Z,97.33
2023-02-21T09:35:58.614Z,97.39
2023-02-21T09:41:04.151Z,97.47
2023-02-21T09:46:14.117Z,97.23
2023-02-21T09:51:16.860Z,97.24
2023-02-21T09:56:28.088Z,97.17
2023-02-21T10:01:53.112Z,96.90
2023-02-21T10:07:02.480Z,97.07
2023-02-21T10:12:22.038Z,97.02
2023-02-21T10:18:02.154Z,96.82
2023-02-21T10:23:13.408Z,96.83
2023-02-21T10:28:22.232Z,96.72
2023-02-21T10:33:23.762Z,96.60
2023-02-21T10:38:26.587Z,96.38
2023-02-21T10:43:36.770Z,96.33
2023-02-21T10:48:41.073Z,96.25
2023-02-21T10:53:47.507Z,96.25
2023-02-21T10:58:56.156Z,95.74
2023-02-21T11:04:01.459Z,95.63
2023-02-21T11:09:28.557Z,95.38
2023-02-21T11:14:32.159Z,95.03
2023-02-21T11:19:56.801Z,94.93
2023-02-21T11:25:08.226Z,94.73
2023-02-21T11:30:20.283Z,94.45
2023-02-21T11:35:35.834Z,94.33
2023-02-21T11:40:51.616Z,94.16
2023-02-21T11:46:00.269Z,94.00
2023-02-21T11:51:07.324Z,93.63
2023-02-21T11:56:26.406Z,93.64
2023-02-21T12:01:38.494Z,93.54
2023-02-21T12:06:57.165Z,93.29
2023-02-21T12:12:20.370Z,93.04
2023-02-21T12:17:52.037Z,92.83
2023-02-21T12:23:18.882Z,92.58
2023-02-21T12:28:20.571Z,92.16
2023-02-21T12:33:41.136Z,91.93
2023-02-21T12:39:22.432Z,91.81
2023-02-21T12:44:36.495Z,91.67
2023-02-21T12:50:01.731Z,91.56
2023-02-21T12:55:25.989Z,91.44
2023-02-21T13:00:35.394Z,91.37
2023-02-21T13:05:44.525Z,91.37
2023-02-21T13:10:59.992Z,100.00
2023-02-21T13:16:04.635Z,91.51
2023-02-21T13:21:28.730Z,91.29
2023-02-21T13:27:15.386Z,91.35
2023-02-21T13:32:22.642Z,91.24
2023-02-21T13:37:28.130Z,91.22
2023-02-21T13:42:30.642Z,91.20
2023-02-21T13:48:11.215Z,91.35
2023-02-21T13:53:18.308Z,91.63
2023-02-21T13:58:19.976Z,91.34
2023-02-21T14:03:22.096Z,91.26
2023-02-21T14:08:35.363Z,91.20
2023-02-21T14:13:51.127Z,90.88
2023-02-21T14:18:59.346Z,90.63
2023-02-21T14:24:13.223Z,90.71
2023-02-21T14:29:16.578Z,90.72
2023-02-21T14:34:36.204Z,90.75
2023-02-21T14:39:40.833Z,90.62
2023-02-21T14:45:15.795Z,90.67
2023-02-21T14:50:25.483Z,90.57
2023-02-21T14:55:45.359Z,90.56
2023-02-21T15:01:05.427Z,90.55
2023-02-21T15:06:12.705Z,90.39
2023-02-21T15:11:28.170Z,90.30
2023-02-21T15:16:31.981Z,90.43
2023-02-21T15:21:33.502Z,90.54
2023-02-21T15:26:35.037Z,90.64
2023-02-21T15:31:40.964Z,90.71
2023-02-21T15:36:42.525Z,90.93
2023-02-21T15:41:47.233Z,90.86
2023-02-21T15:47:01.497Z,90.83
2023-02-21T15:52:04.726Z,90.91
2023-02-21T15:57:24.057Z,91.17
2023-02-21T16:02:26.420Z,91.08
2023-02-21T16:07:37.242Z,91.24
2023-02-21T16:12:44.053Z,91.33
2023-02-21T16:17:52.213Z,91.32
2023-02-21T16:23:25.077Z,91.44
2023-02-21T16:28:26.866Z,91.77
2023-02-21T16:33:29.489Z,91.73
2023-02-21T16:38:31.042Z,92.18
2023-02-21T16:43:32.583Z,92.35
2023-02-21T16:48:34.148Z,92.36
2023-02-21T16:53:36.633Z,92.59
2023-02-21T16:58:42.116Z,92.74
2023-02-21T17:03:43.684Z,92.86
2023-02-21T17:08:45.270Z,92.96
2023-02-21T17:13:46.986Z,93.14
2023-02-21T17:18:48.571Z,93.24
2023-02-21T17:23:50.077Z,93.45
2023-02-21T17:28:52.117Z,93.36
2023-02-21T17:33:54.570Z,93.45
2023-02-21T17:38:58.889Z,93.66
2023-02-21T17:44:00.601Z,93.75
2023-02-21T17:49:02.108Z,93.77
2023-02-21T17:54:03.756Z,93.80
2023-02-21T17:59:05.537Z,93.96
2023-02-21T18:04:08.169Z,93.82
2023-02-21T18:09:10.940Z,94.07
2023-02-21T18:14:12.835Z,94.10
2023-02-21T18:19:16.745Z,94.14
2023-02-21T18:24:22.972Z,94.19
2023-02-21T18:29:24.477Z,94.37
2023-02-21T18:34:25.990Z,94.32
2023-02-21T18:39:27.750Z,94.70
2023-02-21T18:44:31.168Z,94.44
2023-02-21T18:49:38.468Z,94.60
2023-02-21T18:54:45.169Z,94.86
2023-02-21T18:59:46.777Z,94.97
2023-02-21T19:04:48.348Z,95.00
2023-02-21T19:09:50.267Z,95.14
2023-02-21T19:14:51.851Z,94.90
2023-02-21T19:19:53.834Z,95.08
2023-02-21T19:24:55.527Z,95.22
2023-02-21T19:29:57.429Z,95.31
2023-02-21T19:34:59.287Z,95.54
2023-02-21T19:40:00.816Z,95.58
2023-02-21T19:45:02.489Z,95.81
2023-02-21T19:50:04.176Z,96.12
2023-02-21T19:55:07.205Z,95.63
2023-02-21T20:00:12.059Z,96.07
2023-02-21T20:05:14.346Z,96.20
2023-02-21T20:10:18.998Z,96.19
2023-02-21T20:15:21.064Z,96.47
2023-02-21T20:20:22.961Z,96.38
2023-02-21T20:25:24.650Z,96.60
2023-02-21T20:30:26.419Z,96.60
2023-02-21T20:35:29.523Z,96.92
2023-02-21T20:40:32.589Z,96.96
2023-02-21T20:45:34.099Z,97.09
2023-02-21T20:50:35.596Z,97.15
2023-02-21T20:55:40.229Z,97.24
2023-02-21T21:00:42.498Z,97.16
2023-02-21T21:05:44.709Z,97.18
2023-02-21T21:10:49.000Z,97.34
2023-02-21T21:15:50.572Z,97.28
2023-02-21T21:20:52.187Z,97.42
2023-02-21T21:25:53.796Z,97.63
2023-02-21T21:30:55.338Z,97.54
2023-02-21T21:36:00.334Z,97.40
2023-02-21T21:41:07.271Z,97.66
2023-02-21T21:46:12.870Z,97.61
2023-02-21T21:51:14.971Z,97.35
2023-02-21T21:56:22.845Z,98.07
2023-02-21T22:01:26.521Z,97.85
2023-02-21T22:06:28.095Z,97.92
2023-02-21T22:11:29.608Z,97.75
2023-02-21T22:16:38.747Z,97.87
2023-02-21T22:21:40.405Z,97.91
2023-02-21T22:26:44.692Z,97.90
2023-02-21T22:31:47.641Z,97.98
2023-02-21T22:36:50.616Z,98.18
2023-02-21T22:41:52.711Z,98.18
2023-02-21T22:47:03.828Z,98.16
2023-02-21T22:52:05.287Z,98.25
2023-02-21T22:57:07.174Z,97.95
2023-02-21T23:02:08.875Z,98.13
2023-02-21T23:07:10.381Z,98.34
2023-02-21T23:12:14.900Z,98.17
2023-02-21T23:17:16.767Z,98.04
2023-02-21T23:22:18.240Z,98.22
2023-02-21T23:27:21.053Z,98.41
2023-02-21T23:32:22.603Z,98.29
2023-02-21T23:37:24.300Z,98.30
2023-02-21T23:42:25.805Z,98.24
2023-02-21T23:47:27.384Z,98.30
2023-02-21T23:52:29.283Z,98.38
2023-02-21T23:57:31.333Z,98.33
